createdAt,value
2023-03-05T00:01:34.575Z,1.87
2023-03-05T00:04:05.050Z,1.97
2023-03-05T00:06:36.160Z,1.67
2023-03-05T00:09:05.387Z,1.67
2023-03-05T00:11:34.693Z,1.63
2023-03-05T00:14:06.440Z,1.70
2023-03-05T00:16:36.504Z,2.13
2023-03-05T00:19:05.619Z,1.30
2023-03-05T00:21:36.472Z,1.73
2023-03-05T00:24:07.583Z,1.53
2023-03-05T00:26:39.186Z,1.47
2023-03-05T00:29:07.839Z,1.50
2023-03-05T00:31:40.755Z,1.27
2023-03-05T00:34:14.983Z,1.20
2023-03-05T00:36:44.692Z,1.40
2023-03-05T00:39:13.494Z,1.63
2023-03-05T00:41:42.403Z,1.60
2023-03-05T00:44:11.017Z,1.53
2023-03-05T00:46:41.696Z,1.60
2023-03-05T00:49:10.308Z,1.80
2023-03-05T00:51:38.595Z,1.50
2023-03-05T00:54:07.544Z,1.50
2023-03-05T00:56:36.053Z,1.40
2023-03-05T00:59:05.024Z,1.73
2023-03-05T01:01:33.538Z,1.40
2023-03-05T01:04:04.731Z,1.57
2023-03-05T01:06:33.231Z,1.40
2023-03-05T01:09:01.341Z,1.50
2023-03-05T01:11:29.480Z,2.00
2023-03-05T01:13:57.926Z,1.60
2023-03-05T01:16:26.618Z,1.50
2023-03-05T01:18:55.072Z,1.40
2023-03-05T01:21:25.062Z,2.00
2023-03-05T01:23:55.728Z,1.60
2023-03-05T01:26:24.309Z,1.70
2023-03-05T01:28:52.795Z,1.40
2023-03-05T01:31:22.248Z,1.30
2023-03-05T01:33:53.003Z,1.60
2023-03-05T01:36:21.167Z,1.70
2023-03-05T01:38:50.647Z,1.40
2023-03-05T01:41:20.193Z,1.30
2023-03-05T01:43:49.175Z,1.30
2023-03-05T01:46:30.446Z,1.27
2023-03-05T01:49:09.446Z,1.40
2023-03-05T01:51:41.847Z,1.47
2023-03-05T01:54:15.542Z,1.57
2023-03-05T01:56:45.288Z,1.40
2023-03-05T01:59:15.326Z,1.50
2023-03-05T02:01:50.818Z,1.53
2023-03-05T02:04:20.703Z,1.60
2023-03-05T02:06:50.666Z,1.33
2023-03-05T02:09:23.526Z,1.27
2023-03-05T02:11:52.251Z,1.60
2023-03-05T02:14:20.800Z,1.50
2023-03-05T02:16:49.328Z,1.43
2023-03-05T02:19:17.543Z,1.50
2023-03-05T02:21:50.071Z,1.73
2023-03-05T02:24:20.926Z,1.37
2023-03-05T02:26:49.366Z,1.60
2023-03-05T02:29:21.590Z,1.70
2023-03-05T02:31:52.458Z,1.40
2023-03-05T02:34:21.757Z,1.73
2023-03-05T02:36:51.459Z,1.30
2023-03-05T02:39:19.797Z,1.37
2023-03-05T02:41:48.153Z,1.03
2023-03-05T02:44:16.769Z,1.03
2023-03-05T02:46:45.352Z,1.10
2023-03-05T02:49:13.749Z,1.60
2023-03-05T02:51:41.969Z,1.20
2023-03-05T02:54:11.994Z,1.20
2023-03-05T02:56:40.090Z,1.20
2023-03-05T02:59:08.706Z,1.10
2023-03-05T03:01:37.085Z,1.00
2023-03-05T03:04:05.586Z,1.63
2023-03-05T03:06:33.699Z,1.10
2023-03-05T03:09:01.946Z,0.97
2023-03-05T03:11:32.223Z,0.87
2023-03-05T03:14:01.095Z,1.10
2023-03-05T03:16:29.297Z,1.20
2023-03-05T03:18:57.616Z,0.93
2023-03-05T03:21:27.037Z,0.80
2023-03-05T03:23:55.504Z,0.83
2023-03-05T03:26:23.948Z,1.10
2023-03-05T03:28:54.097Z,0.87
2023-03-05T03:31:22.546Z,1.00
2023-03-05T03:33:50.905Z,1.10
2023-03-05T03:36:19.273Z,1.00
2023-03-05T03:38:47.926Z,0.90
2023-03-05T03:41:16.079Z,1.00
2023-03-05T03:43:44.492Z,0.90
2023-03-05T03:46:14.647Z,1.00
2023-03-05T03:48:42.745Z,0.80
2023-03-05T03:51:11.181Z,0.93
2023-03-05T03:53:39.544Z,1.00
2023-03-05T03:56:08.675Z,1.23
2023-03-05T03:58:37.038Z,0.90
2023-03-05T04:01:05.636Z,0.80
2023-03-05T04:03:35.486Z,0.70
2023-03-05T04:06:04.742Z,1.00
2023-03-05T04:08:33.595Z,0.80
2023-03-05T04:11:02.614Z,0.80
2023-03-05T04:13:31.184Z,1.10
2023-03-05T04:15:59.548Z,0.80
2023-03-05T04:18:28.162Z,0.80
2023-03-05T04:20:57.877Z,0.77
2023-03-05T04:23:26.289Z,1.10
2023-03-05T04:25:55.680Z,0.87
2023-03-05T04:28:24.197Z,0.70
2023-03-05T04:30:53.006Z,0.93
2023-03-05T04:33:21.522Z,0.80
2023-03-05T04:35:50.013Z,0.80
2023-03-05T04:38:21.425Z,0.80
2023-03-05T04:40:49.764Z,0.70
2023-03-05T04:43:18.199Z,0.60
2023-03-05T04:45:46.832Z,0.70
2023-03-05T04:48:15.633Z,0.77
2023-03-05T04:50:44.560Z,0.60
2023-03-05T04:53:12.894Z,0.60
2023-03-05T04:55:42.906Z,0.70
2023-03-05T04:58:11.312Z,0.90
2023-03-05T05:00:40.493Z,0.70
2023-03-05T05:03:09.256Z,0.90
2023-03-05T05:05:37.869Z,0.43
2023-03-05T05:08:06.744Z,0.77
2023-03-05T05:10:35.073Z,0.90
2023-03-05T05:13:05.053Z,0.87
2023-03-05T05:15:33.966Z,1.00
2023-03-05T05:18:02.108Z,0.70
2023-03-05T05:20:30.995Z,1.00
2023-03-05T05:22:59.184Z,0.80
2023-03-05T05:25:27.806Z,0.57
2023-03-05T05:27:56.163Z,0.97
2023-03-05T05:30:26.171Z,1.00
2023-03-05T05:32:54.335Z,1.20
2023-03-05T05:35:22.806Z,0.87
2023-03-05T05:37:51.000Z,0.80
2023-03-05T05:40:19.201Z,0.77
2023-03-05T05:42:47.691Z,0.83
2023-03-05T05:45:15.904Z,0.80
2023-03-05T05:47:48.258Z,1.27
2023-03-05T05:50:16.701Z,0.73
2023-03-05T05:52:46.408Z,0.73
2023-03-05T05:55:14.964Z,0.80
2023-03-05T05:57:43.180Z,0.80
2023-03-05T06:00:14.270Z,0.90
2023-03-05T06:02:43.842Z,0.80
2023-03-05T06:05:16.436Z,0.83
2023-03-05T06:07:44.699Z,0.93
2023-03-05T06:10:13.339Z,0.73
2023-03-05T06:12:41.555Z,0.80
2023-03-05T06:15:10.877Z,0.90
2023-03-05T06:17:40.280Z,0.87
2023-03-05T06:20:09.890Z,0.70
2023-03-05T06:22:40.162Z,0.80
2023-03-05T06:25:10.278Z,1.00
2023-03-05T06:27:40.035Z,0.90
2023-03-05T06:30:09.489Z,0.70
2023-03-05T06:32:38.267Z,0.77
2023-03-05T06:35:09.341Z,0.90
2023-03-05T06:37:37.465Z,0.80
2023-03-05T06:40:10.135Z,0.97
2023-03-05T06:42:38.300Z,1.03
2023-03-05T06:45:07.786Z,0.87
2023-03-05T06:47:36.094Z,0.80
2023-03-05T06:50:04.374Z,0.90
2023-03-05T06:52:32.838Z,1.23
2023-03-05T06:55:01.173Z,1.03
2023-03-05T06:57:30.996Z,1.20
2023-03-05T06:59:59.121Z,1.00
2023-03-05T07:02:27.885Z,1.00
2023-03-05T07:04:56.270Z,1.20
2023-03-05T07:07:24.660Z,1.20
2023-03-05T07:09:53.939Z,1.23
2023-03-05T07:12:22.138Z,0.97
2023-03-05T07:14:53.912Z,1.40
2023-03-05T07:17:22.558Z,1.60
2023-03-05T07:19:51.172Z,1.43
2023-03-05T07:22:19.519Z,1.70
2023-03-05T07:24:47.967Z,1.60
2023-03-05T07:27:17.582Z,1.60
2023-03-05T07:29:46.000Z,2.10
2023-03-05T07:32:15.734Z,1.60
2023-03-05T07:34:43.858Z,2.00
2023-03-05T07:37:12.000Z,2.03
2023-03-05T07:39:40.080Z,2.63
2023-03-05T07:42:08.793Z,2.70
2023-03-05T07:44:39.207Z,2.67
2023-03-05T07:47:09.032Z,2.80
2023-03-05T07:49:39.901Z,2.87
2023-03-05T07:52:08.585Z,2.87
2023-03-05T07:54:38.151Z,3.10
2023-03-05T07:57:09.137Z,2.93
2023-03-05T07:59:37.374Z,2.83
2023-03-05T08:02:05.810Z,2.73
2023-03-05T08:04:34.054Z,2.83
2023-03-05T08:07:03.738Z,3.53
2023-03-05T08:09:32.250Z,3.60
2023-03-05T08:12:00.383Z,3.90
2023-03-05T08:14:29.096Z,4.30
2023-03-05T08:17:00.017Z,3.30
2023-03-05T08:19:28.305Z,3.27
2023-03-05T08:21:56.806Z,3.10
2023-03-05T08:24:29.867Z,3.47
2023-03-05T08:26:58.645Z,3.50
2023-03-05T08:29:27.801Z,3.47
2023-03-05T08:31:56.640Z,4.03
2023-03-05T08:34:25.068Z,4.27
2023-03-05T08:36:53.220Z,4.07
2023-03-05T08:39:21.380Z,3.87
2023-03-05T08:41:51.470Z,3.43
2023-03-05T08:44:19.760Z,3.17
2023-03-05T08:46:48.167Z,3.33
2023-03-05T08:49:16.542Z,3.10
2023-03-05T08:51:45.250Z,3.73
2023-03-05T08:54:13.418Z,3.70
2023-03-05T08:56:41.838Z,3.63
2023-03-05T08:59:13.635Z,4.37
2023-03-05T09:01:42.189Z,4.23
2023-03-05T09:04:11.407Z,4.57
2023-03-05T09:06:40.763Z,4.33
2023-03-05T09:09:09.742Z,4.50
2023-03-05T09:11:38.532Z,4.80
2023-03-05T09:14:08.868Z,4.73
2023-03-05T09:16:40.677Z,4.87
2023-03-05T09:19:10.741Z,5.03
2023-03-05T09:21:38.940Z,4.83
2023-03-05T09:24:07.480Z,6.03
2023-03-05T09:26:35.658Z,4.53
2023-03-05T09:29:04.055Z,4.90
2023-03-05T09:31:32.114Z,5.00
2023-03-05T09:34:01.949Z,4.77
2023-03-05T09:36:34.884Z,4.70
2023-03-05T09:39:04.206Z,5.03
2023-03-05T09:41:55.821Z,5.13
2023-03-05T09:44:35.258Z,5.13
2023-03-05T09:47:17.139Z,5.60
2023-03-05T09:49:56.827Z,6.50
2023-03-05T09:52:36.344Z,5.43
2023-03-05T09:55:07.089Z,4.97
2023-03-05T09:57:45.136Z,6.30
2023-03-05T10:00:27.524Z,7.20
2023-03-05T10:02:59.731Z,7.90
2023-03-05T10:05:47.051Z,37.40
2023-03-05T10:08:19.232Z,8.33
2023-03-05T10:10:51.259Z,7.87
2023-03-05T10:13:26.080Z,10.40
2023-03-05T10:16:06.353Z,6.57
2023-03-05T10:18:39.974Z,5.87
2023-03-05T10:21:14.912Z,6.70
2023-03-05T10:23:56.324Z,5.33
2023-03-05T10:27:01.023Z,5.33
2023-03-05T10:29:55.695Z,5.43
2023-03-05T10:32:43.594Z,5.90
2023-03-05T10:35:25.010Z,5.03
2023-03-05T10:38:14.886Z,4.83
2023-03-05T10:40:46.516Z,4.50
2023-03-05T10:43:24.618Z,3.97
2023-03-05T10:45:55.588Z,4.30
2023-03-05T10:48:33.334Z,5.13
2023-03-05T10:51:06.251Z,4.00
2023-03-05T10:53:39.767Z,5.47
2023-03-05T10:56:08.207Z,4.03
2023-03-05T10:58:38.182Z,4.20
2023-03-05T11:01:08.296Z,3.30
2023-03-05T11:03:58.754Z,3.30
2023-03-05T11:06:36.459Z,3.60
2023-03-05T11:09:22.541Z,3.50
2023-03-05T11:12:16.275Z,2.90
2023-03-05T11:14:46.303Z,2.90
2023-03-05T11:17:33.903Z,2.57
2023-03-05T11:20:30.318Z,2.50
2023-03-05T11:23:15.416Z,2.67
2023-03-05T11:26:04.295Z,2.83
2023-03-05T11:28:36.161Z,2.27
2023-03-05T11:31:24.538Z,2.10
2023-03-05T11:34:01.353Z,2.30
2023-03-05T11:36:32.236Z,2.40
2023-03-05T11:39:10.613Z,2.00
2023-03-05T11:41:43.743Z,1.77
2023-03-05T11:44:16.744Z,1.53
2023-03-05T11:46:48.517Z,1.90
2023-03-05T11:49:22.675Z,1.70
2023-03-05T11:52:02.246Z,1.90
2023-03-05T11:54:38.485Z,2.33
2023-03-05T11:57:14.511Z,1.80
2023-03-05T11:59:44.296Z,2.00
2023-03-05T12:02:21.483Z,1.63
2023-03-05T12:04:51.989Z,2.00
2023-03-05T12:07:28.354Z,1.77
2023-03-05T12:09:56.911Z,2.00
2023-03-05T12:12:41.268Z,2.20
2023-03-05T12:15:38.045Z,2.10
2023-03-05T12:18:17.517Z,2.50
2023-03-05T12:20:54.448Z,2.43
2023-03-05T12:23:23.274Z,3.00
2023-03-05T12:25:53.607Z,6.47
2023-03-05T12:28:57.569Z,10.20
2023-03-05T12:31:38.022Z,2.83
2023-03-05T12:34:36.829Z,2.97
2023-03-05T12:37:05.786Z,2.57
2023-03-05T12:39:49.976Z,2.40
2023-03-05T12:42:49.400Z,3.07
2023-03-05T12:45:33.001Z,3.23
2023-03-05T12:48:37.240Z,3.20
2023-03-05T12:51:08.994Z,3.40
2023-03-05T12:53:37.102Z,4.13
2023-03-05T12:56:15.084Z,6.83
2023-03-05T12:58:46.016Z,6.20
2023-03-05T13:01:42.404Z,2.90
2023-03-05T13:04:19.893Z,2.80
2023-03-05T13:07:00.682Z,3.73
2023-03-05T13:09:34.420Z,3.30
2023-03-05T13:12:04.120Z,3.43
2023-03-05T13:14:39.695Z,3.53
2023-03-05T13:17:39.462Z,3.07
2023-03-05T13:20:27.876Z,2.90
2023-03-05T13:23:17.155Z,2.90
2023-03-05T13:25:46.180Z,3.53
2023-03-05T13:28:16.832Z,3.20
2023-03-05T13:30:47.440Z,2.33
2023-03-05T13:33:25.738Z,2.67
2023-03-05T13:35:54.252Z,2.63
2023-03-05T13:38:33.012Z,2.50
2023-03-05T13:41:21.668Z,2.40
2023-03-05T13:43:52.106Z,2.10
2023-03-05T13:46:29.867Z,2.20
2023-03-05T13:49:18.106Z,2.63
2023-03-05T13:51:47.919Z,2.33
2023-03-05T13:54:17.800Z,2.40
2023-03-05T13:56:55.778Z,2.30
2023-03-05T13:59:26.427Z,2.60
2023-03-05T14:01:55.313Z,2.30
2023-03-05T14:04:27.483Z,2.17
2023-03-05T14:07:00.115Z,2.33
2023-03-05T14:09:29.913Z,2.60
2023-03-05T14:12:01.930Z,2.47
2023-03-05T14:14:32.968Z,2.47
2023-03-05T14:17:22.138Z,2.27
2023-03-05T14:19:52.361Z,3.13
2023-03-05T14:22:35.725Z,2.70
2023-03-05T14:25:04.655Z,3.20
2023-03-05T14:27:36.264Z,2.70
2023-03-05T14:30:05.669Z,5.50
2023-03-05T14:32:36.359Z,3.07
2023-03-05T14:35:08.075Z,3.00
2023-03-05T14:37:41.617Z,2.70
2023-03-05T14:40:22.752Z,2.43
2023-03-05T14:42:54.566Z,2.40
2023-03-05T14:45:33.328Z,2.67
2023-03-05T14:48:04.419Z,2.70
2023-03-05T14:50:36.309Z,3.10
2023-03-05T14:53:09.876Z,3.20
2023-03-05T14:55:38.719Z,2.97
2023-03-05T14:58:13.711Z,3.53
2023-03-05T15:00:43.153Z,3.67
2023-03-05T15:03:12.713Z,4.40
2023-03-05T15:05:43.700Z,4.33
2023-03-05T15:08:15.605Z,5.30
2023-03-05T15:10:44.476Z,4.53
2023-03-05T15:13:14.804Z,5.37
2023-03-05T15:15:43.880Z,7.27
2023-03-05T15:18:14.518Z,5.70
2023-03-05T15:20:45.149Z,7.00
2023-03-05T15:23:13.903Z,6.13
2023-03-05T15:25:43.418Z,6.57
2023-03-05T15:28:11.644Z,6.30
2023-03-05T15:30:42.755Z,5.77
2023-03-05T15:33:17.074Z,6.03
2023-03-05T15:35:47.877Z,6.10
2023-03-05T15:38:17.167Z,16.30
2023-03-05T15:40:46.243Z,11.20
2023-03-05T15:43:14.799Z,5.93
2023-03-05T15:45:43.166Z,5.83
2023-03-05T15:48:11.725Z,6.23
2023-03-05T15:50:43.061Z,7.10
2023-03-05T15:53:16.341Z,6.93
2023-03-05T15:55:46.176Z,6.80
2023-03-05T15:58:15.475Z,6.67
2023-03-05T16:00:44.579Z,7.60
2023-03-05T16:03:13.666Z,12.63
2023-03-05T16:05:42.248Z,10.50
2023-03-05T16:08:10.624Z,15.67
2023-03-05T16:10:41.119Z,10.77
2023-03-05T16:13:13.745Z,8.27
2023-03-05T16:15:53.266Z,8.00
2023-03-05T16:18:22.433Z,7.30
2023-03-05T16:20:51.412Z,8.10
2023-03-05T16:23:21.735Z,9.47
2023-03-05T16:25:52.183Z,8.37
2023-03-05T16:28:20.905Z,8.43
2023-03-05T16:30:54.494Z,7.33
2023-03-05T16:33:22.880Z,6.90
2023-03-05T16:35:51.891Z,7.23
2023-03-05T16:38:20.234Z,7.67
2023-03-05T16:41:07.337Z,7.50
2023-03-05T16:43:39.052Z,8.93
2023-03-05T16:46:11.709Z,7.50
2023-03-05T16:48:40.075Z,9.20
2023-03-05T16:51:08.818Z,7.13
2023-03-05T16:53:37.626Z,7.60
2023-03-05T16:56:07.718Z,8.13
2023-03-05T16:58:39.105Z,8.33
2023-03-05T17:01:10.703Z,16.90
2023-03-05T17:03:41.632Z,9.90
2023-03-05T17:06:12.022Z,10.70
2023-03-05T17:08:40.769Z,7.93
2023-03-05T17:11:09.344Z,8.53
2023-03-05T17:13:40.020Z,8.73
2023-03-05T17:16:09.665Z,8.53
2023-03-05T17:18:38.663Z,8.70
2023-03-05T17:21:09.110Z,8.73
2023-03-05T17:23:38.783Z,8.87
2023-03-05T17:26:08.271Z,9.40
2023-03-05T17:28:37.117Z,10.47
2023-03-05T17:31:07.413Z,8.67
2023-03-05T17:33:37.155Z,9.87
2023-03-05T17:36:06.653Z,8.77
2023-03-05T17:38:35.689Z,9.73
2023-03-05T17:41:05.338Z,8.80
2023-03-05T17:43:33.850Z,8.67
2023-03-05T17:46:02.328Z,9.50
2023-03-05T17:48:34.248Z,8.17
2023-03-05T17:51:02.792Z,10.50
2023-03-05T17:53:31.019Z,9.70
2023-03-05T17:55:59.189Z,8.30
2023-03-05T17:58:27.398Z,8.57
2023-03-05T18:00:56.918Z,9.53
2023-03-05T18:03:25.405Z,9.60
2023-03-05T18:05:55.508Z,8.87
2023-03-05T18:08:23.941Z,9.07
2023-03-05T18:10:52.242Z,9.77
2023-03-05T18:13:20.597Z,9.93
2023-03-05T18:15:49.926Z,10.63
2023-03-05T18:18:19.826Z,9.50
2023-03-05T18:20:49.878Z,9.77
2023-03-05T18:23:19.881Z,9.60
2023-03-05T18:25:48.192Z,11.30
2023-03-05T18:28:17.946Z,11.70
2023-03-05T18:30:47.272Z,11.43
2023-03-05T18:33:19.714Z,10.03
2023-03-05T18:35:49.827Z,9.33
2023-03-05T18:38:20.375Z,11.60
2023-03-05T18:40:51.431Z,11.27
2023-03-05T18:43:21.603Z,10.80
2023-03-05T18:45:52.519Z,10.57
2023-03-05T18:48:20.806Z,10.50
2023-03-05T18:50:51.632Z,9.93
2023-03-05T18:53:21.762Z,9.67
2023-03-05T18:55:51.553Z,9.63
2023-03-05T18:58:19.813Z,11.60
2023-03-05T19:00:52.683Z,10.60
2023-03-05T19:03:22.992Z,10.30
2023-03-05T19:05:53.186Z,11.47
2023-03-05T19:08:22.690Z,13.13
2023-03-05T19:10:53.632Z,15.40
2023-03-05T19:13:35.218Z,16.60
2023-03-05T19:16:08.534Z,11.80
2023-03-05T19:18:44.025Z,15.33
2023-03-05T19:21:12.392Z,16.50
2023-03-05T19:23:42.186Z,14.53
2023-03-05T19:26:11.412Z,13.00
2023-03-05T19:28:39.896Z,10.77
2023-03-05T19:31:08.752Z,11.53
2023-03-05T19:33:36.989Z,10.13
2023-03-05T19:36:09.725Z,10.90
2023-03-05T19:38:38.330Z,13.20
2023-03-05T19:41:11.085Z,11.10
2023-03-05T19:43:39.627Z,10.83
2023-03-05T19:46:09.707Z,13.47
2023-03-05T19:48:39.554Z,13.47
2023-03-05T19:51:11.705Z,11.53
2023-03-05T19:53:40.144Z,10.47
2023-03-05T19:56:10.795Z,10.50
2023-03-05T19:58:39.422Z,9.57
2023-03-05T20:01:13.478Z,9.60
2023-03-05T20:03:41.979Z,9.30
2023-03-05T20:06:10.325Z,10.00
2023-03-05T20:08:38.773Z,34.13
2023-03-05T20:11:08.194Z,73.87
2023-03-05T20:13:38.500Z,15.57
2023-03-05T20:16:07.478Z,18.90
2023-03-05T20:18:35.781Z,15.33
2023-03-05T20:21:04.184Z,12.23
2023-03-05T20:23:32.217Z,9.87
2023-03-05T20:26:00.576Z,9.27
2023-03-05T20:28:29.920Z,9.80
2023-03-05T20:31:02.021Z,10.27
2023-03-05T20:33:30.827Z,9.53
2023-03-05T20:36:01.394Z,9.67
2023-03-05T20:38:30.865Z,10.10
2023-03-05T20:41:01.095Z,10.90
2023-03-05T20:43:31.934Z,10.33
2023-03-05T20:46:05.650Z,10.00
2023-03-05T20:48:35.838Z,10.30
2023-03-05T20:51:13.294Z,10.57
2023-03-05T20:53:41.997Z,10.80
2023-03-05T20:56:12.821Z,9.93
2023-03-05T20:58:41.141Z,10.33
2023-03-05T21:01:11.406Z,10.30
2023-03-05T21:03:40.397Z,10.70
2023-03-05T21:06:08.916Z,10.40
2023-03-05T21:08:37.232Z,9.90
2023-03-05T21:11:09.849Z,9.77
2023-03-05T21:13:38.602Z,10.43
2023-03-05T21:16:09.255Z,10.17
2023-03-05T21:18:40.218Z,10.40
2023-03-05T21:21:09.004Z,11.03
2023-03-05T21:23:37.632Z,10.30
2023-03-05T21:26:06.316Z,9.93
2023-03-05T21:28:34.878Z,11.60
2023-03-05T21:31:09.315Z,10.80
2023-03-05T21:33:40.512Z,11.37
2023-03-05T21:36:11.862Z,11.50
2023-03-05T21:38:41.628Z,12.17
2023-03-05T21:41:09.849Z,12.57
2023-03-05T21:43:38.268Z,12.90
2023-03-05T21:46:06.774Z,13.27
2023-03-05T21:48:35.218Z,12.90
2023-03-05T21:51:08.086Z,13.17
2023-03-05T21:53:36.763Z,13.93
2023-03-05T21:56:05.501Z,13.40
2023-03-05T21:58:36.113Z,13.37
2023-03-05T22:01:07.641Z,14.40
2023-03-05T22:03:36.035Z,13.80
2023-03-05T22:06:10.044Z,14.23
2023-03-05T22:08:38.537Z,14.50
2023-03-05T22:11:10.032Z,14.47
2023-03-05T22:13:38.293Z,15.00
2023-03-05T22:16:07.526Z,14.50
2023-03-05T22:18:36.298Z,14.23
2023-03-05T22:21:06.696Z,14.27
2023-03-05T22:23:35.380Z,15.00
2023-03-05T22:26:06.463Z,15.50
2023-03-05T22:28:35.182Z,17.17
2023-03-05T22:31:03.705Z,27.00
2023-03-05T22:33:32.647Z,26.83
2023-03-05T22:36:01.147Z,15.60
2023-03-05T22:38:31.020Z,19.73
2023-03-05T22:40:59.264Z,16.13
2023-03-05T22:43:27.319Z,15.13
2023-03-05T22:45:55.578Z,13.50
2023-03-05T22:48:23.999Z,14.27
2023-03-05T22:50:56.968Z,13.70
2023-03-05T22:53:25.157Z,13.07
2023-03-05T22:55:55.373Z,13.90
2023-03-05T22:58:23.742Z,13.60
2023-03-05T23:00:52.099Z,13.63
2023-03-05T23:03:20.273Z,13.20
2023-03-05T23:05:48.336Z,14.00
2023-03-05T23:08:16.642Z,13.20
2023-03-05T23:10:45.087Z,14.07
2023-03-05T23:13:17.198Z,14.17
2023-03-05T23:15:45.299Z,12.43
2023-03-05T23:18:15.291Z,12.83
2023-03-05T23:20:43.728Z,12.53
2023-03-05T23:23:12.589Z,13.20
2023-03-05T23:25:41.189Z,13.17
2023-03-05T23:28:09.636Z,12.30
2023-03-05T23:30:40.007Z,12.60
2023-03-05T23:33:10.028Z,12.40
2023-03-05T23:35:41.116Z,12.37
2023-03-05T23:38:13.185Z,12.57
2023-03-05T23:40:43.558Z,12.33
2023-03-05T23:43:12.419Z,13.83
2023-03-05T23:45:43.841Z,13.17
2023-03-05T23:48:12.922Z,13.50
2023-03-05T23:50:44.546Z,13.20
2023-03-05T23:53:19.825Z,13.07
2023-03-05T23:55:49.105Z,13.07
2023-03-05T23:58:19.239Z,13.30
